<?xml version='1.0' encoding='UTF-8'?><gpx version="1.1" creator="JPX - https://github.com/jenetics/jpx" xmlns="http://www.topografix.com/GPX/1/1"><trk><trkseg><trkpt lat="44.7686665" lon="8.7884851"><ele>191.0</ele><time>2026-04-08T07:25:13.748Z</time></trkpt><trkpt lat="44.7687349" lon="8.7884955"><ele>191.0</ele><time>2026-04-08T07:25:22.602Z</time></trkpt><trkpt lat="44.7688039" lon="8.7885218"><ele>191.0</ele><time>2026-04-08T07:25:26.573Z</time></trkpt><trkpt lat="44.7688696" lon="8.7885388"><ele>191.0</ele><time>2026-04-08T07:25:30.577Z</time></trkpt><trkpt lat="44.7689398" lon="8.7885593"><ele>191.0</ele><time>2026-04-08T07:25:35.574Z</time></trkpt><trkpt lat="44.769004" lon="8.7886072"><ele>191.0</ele><time>2026-04-08T07:25:43.284Z</time></trkpt><trkpt lat="44.7690752" lon="8.7886282"><ele>191.0</ele><time>2026-04-08T07:25:48.235Z</time></trkpt><trkpt lat="44.7691398" lon="8.7886595"><ele>191.0</ele><time>2026-04-08T07:25:54.59Z</time></trkpt><trkpt lat="44.7691997" lon="8.7886901"><ele>191.0</ele><time>2026-04-08T07:25:59.573Z</time></trkpt><trkpt lat="44.7692705" lon="8.7886958"><ele>191.0</ele><time>2026-04-08T07:26:04.573Z</time></trkpt><trkpt lat="44.7693438" lon="8.7887302"><ele>191.0</ele><time>2026-04-08T07:26:10.576Z</time></trkpt><trkpt lat="44.7694107" lon="8.7887605"><ele>191.0</ele><time>2026-04-08T07:26:15.548Z</time></trkpt><trkpt lat="44.7694785" lon="8.7887931"><ele>191.0</ele><time>2026-04-08T07:26:22.574Z</time></trkpt><trkpt lat="44.7695524" lon="8.788804"><ele>191.0</ele><time>2026-04-08T07:26:31.769Z</time></trkpt><trkpt lat="44.7696199" lon="8.7888338"><ele>191.2857142857143</ele><time>2026-04-08T07:26:35.984Z</time></trkpt><trkpt lat="44.7696914" lon="8.788858"><ele>191.57142857142856</ele><time>2026-04-08T07:26:41.487Z</time></trkpt><trkpt lat="44.7697589" lon="8.7888845"><ele>191.85714285714286</ele><time>2026-04-08T07:26:46.465Z</time></trkpt><trkpt lat="44.7698236" lon="8.7889138"><ele>192.14285714285717</ele><time>2026-04-08T07:26:51.575Z</time></trkpt><trkpt lat="44.7698928" lon="8.7889403"><ele>192.42857142857144</ele><time>2026-04-08T07:26:56.573Z</time></trkpt><trkpt lat="44.7699593" lon="8.7889618"><ele>192.71428571428572</ele><time>2026-04-08T07:27:02.445Z</time></trkpt><trkpt lat="44.7700238" lon="8.7889871"><ele>193.0</ele><time>2026-04-08T07:27:06.574Z</time></trkpt><trkpt lat="44.7700852" lon="8.7890157"><ele>193.00000000000003</ele><time>2026-04-08T07:27:11.578Z</time></trkpt><trkpt lat="44.7701491" lon="8.789039"><ele>193.0</ele><time>2026-04-08T07:27:16.583Z</time></trkpt><trkpt lat="44.7702117" lon="8.7890651"><ele>193.0</ele><time>2026-04-08T07:27:22.534Z</time></trkpt><trkpt lat="44.7702801" lon="8.7890862"><ele>193.0</ele><time>2026-04-08T07:27:29.41Z</time></trkpt><trkpt lat="44.7703588" lon="8.7891068"><ele>193.0</ele><time>2026-04-08T07:27:33.571Z</time></trkpt><trkpt lat="44.7704316" lon="8.7891206"><ele>193.00000000000003</ele><time>2026-04-08T07:27:38.392Z</time></trkpt><trkpt lat="44.7705059" lon="8.7891386"><ele>193.0</ele><time>2026-04-08T07:27:42.57Z</time></trkpt><trkpt lat="44.7705809" lon="8.7891693"><ele>192.71428571428572</ele><time>2026-04-08T07:27:49.57Z</time></trkpt><trkpt lat="44.7706359" lon="8.7892269"><ele>192.42857142857144</ele><time>2026-04-08T07:27:53.591Z</time></trkpt><trkpt lat="44.7707061" lon="8.7892641"><ele>192.14285714285717</ele><time>2026-04-08T07:28:01.57Z</time></trkpt><trkpt lat="44.7707764" lon="8.7892923"><ele>191.85714285714286</ele><time>2026-04-08T07:28:07.591Z</time></trkpt><trkpt lat="44.7708399" lon="8.7893064"><ele>191.57142857142856</ele><time>2026-04-08T07:28:10.431Z</time></trkpt><trkpt lat="44.770899" lon="8.7893423"><ele>191.2857142857143</ele><time>2026-04-08T07:28:14.602Z</time></trkpt><trkpt lat="44.7709696" lon="8.789372"><ele>191.0</ele><time>2026-04-08T07:28:19.57Z</time></trkpt><trkpt lat="44.771045" lon="8.789351"><ele>191.0</ele><time>2026-04-08T07:28:22.602Z</time></trkpt><trkpt lat="44.7711085" lon="8.789394"><ele>191.0</ele><time>2026-04-08T07:28:28.386Z</time></trkpt><trkpt lat="44.7711747" lon="8.7894027"><ele>191.0</ele><time>2026-04-08T07:28:35.488Z</time></trkpt><trkpt lat="44.7712558" lon="8.7894352"><ele>191.0</ele><time>2026-04-08T07:28:41.208Z</time></trkpt><trkpt lat="44.7713212" lon="8.7894573"><ele>191.0</ele><time>2026-04-08T07:28:44.57Z</time></trkpt><trkpt lat="44.7713954" lon="8.7894704"><ele>191.0</ele><time>2026-04-08T07:28:46.571Z</time></trkpt><trkpt lat="44.7714635" lon="8.7895032"><ele>191.0</ele><time>2026-04-08T07:28:54.57Z</time></trkpt><trkpt lat="44.7715445" lon="8.7895326"><ele>191.0</ele><time>2026-04-08T07:28:59.57Z</time></trkpt><trkpt lat="44.7716132" lon="8.7895594"><ele>191.0</ele><time>2026-04-08T07:29:02.541Z</time></trkpt><trkpt lat="44.7716786" lon="8.7895791"><ele>191.0</ele><time>2026-04-08T07:29:06.57Z</time></trkpt><trkpt lat="44.7717432" lon="8.7895644"><ele>191.0</ele><time>2026-04-08T07:29:11.57Z</time></trkpt><trkpt lat="44.7718152" lon="8.7895625"><ele>191.0</ele><time>2026-04-08T07:29:15.361Z</time></trkpt><trkpt lat="44.77189" lon="8.7895882"><ele>191.0</ele><time>2026-04-08T07:29:21.57Z</time></trkpt><trkpt lat="44.7719616" lon="8.7896089"><ele>191.0</ele><time>2026-04-08T07:29:25.57Z</time></trkpt><trkpt lat="44.7720389" lon="8.7896509"><ele>190.71428571428572</ele><time>2026-04-08T07:29:31.57Z</time></trkpt><trkpt lat="44.7721008" lon="8.7896763"><ele>190.42857142857142</ele><time>2026-04-08T07:29:35.484Z</time></trkpt><trkpt lat="44.7721665" lon="8.7896691"><ele>190.14285714285714</ele><time>2026-04-08T07:29:41.609Z</time></trkpt><trkpt lat="44.7722279" lon="8.7897039"><ele>189.85714285714286</ele><time>2026-04-08T07:29:44.384Z</time></trkpt><trkpt lat="44.7722922" lon="8.7897429"><ele>189.57142857142856</ele><time>2026-04-08T07:29:49.448Z</time></trkpt><trkpt lat="44.7723451" lon="8.7897924"><ele>189.28571428571428</ele><time>2026-04-08T07:29:54.537Z</time></trkpt><trkpt lat="44.7724098" lon="8.7898248"><ele>189.0</ele><time>2026-04-08T07:29:57.571Z</time></trkpt><trkpt lat="44.7724754" lon="8.7898452"><ele>189.0</ele><time>2026-04-08T07:30:03.577Z</time></trkpt><trkpt lat="44.7725396" lon="8.7898354"><ele>189.0</ele><time>2026-04-08T07:30:09.57Z</time></trkpt><trkpt lat="44.7726193" lon="8.7898348"><ele>189.0</ele><time>2026-04-08T07:30:16.57Z</time></trkpt><trkpt lat="44.7726846" lon="8.7898645"><ele>189.0</ele><time>2026-04-08T07:30:20.571Z</time></trkpt><trkpt lat="44.7727538" lon="8.7898612"><ele>189.0</ele><time>2026-04-08T07:30:23.555Z</time></trkpt><trkpt lat="44.7728201" lon="8.7898711"><ele>189.0</ele><time>2026-04-08T07:30:29.484Z</time></trkpt><trkpt lat="44.7729065" lon="8.7898627"><ele>189.0</ele><time>2026-04-08T07:30:34.57Z</time></trkpt><trkpt lat="44.7729864" lon="8.7898738"><ele>189.16666666666666</ele><time>2026-04-08T07:30:40.426Z</time></trkpt><trkpt lat="44.7730597" lon="8.7898421"><ele>189.33333333333334</ele><time>2026-04-08T07:30:47.573Z</time></trkpt><trkpt lat="44.773142" lon="8.7898264"><ele>189.5</ele><time>2026-04-08T07:30:50.536Z</time></trkpt><trkpt lat="44.7732251" lon="8.7898425"><ele>189.66666666666669</ele><time>2026-04-08T07:30:54.57Z</time></trkpt><trkpt lat="44.7732935" lon="8.7898402"><ele>189.83333333333334</ele><time>2026-04-08T07:30:58.57Z</time></trkpt><trkpt lat="44.7733693" lon="8.7898401"><ele>190.0</ele><time>2026-04-08T07:31:03.57Z</time></trkpt><trkpt lat="44.7734349" lon="8.7898326"><ele>190.0</ele><time>2026-04-08T07:31:08.303Z</time></trkpt><trkpt lat="44.7735124" lon="8.7898321"><ele>190.0</ele><time>2026-04-08T07:31:13.57Z</time></trkpt><trkpt lat="44.7735749" lon="8.7898165"><ele>190.0</ele><time>2026-04-08T07:31:17.452Z</time></trkpt><trkpt lat="44.7736447" lon="8.789812"><ele>190.0</ele><time>2026-04-08T07:31:21.503Z</time></trkpt><trkpt lat="44.7737161" lon="8.7898252"><ele>190.0</ele><time>2026-04-08T07:31:28.57Z</time></trkpt><trkpt lat="44.7737827" lon="8.7898007"><ele>190.0</ele><time>2026-04-08T07:31:34.571Z</time></trkpt><trkpt lat="44.773857" lon="8.7898397"><ele>190.0</ele><time>2026-04-08T07:31:36.571Z</time></trkpt><trkpt lat="44.7739291" lon="8.7898654"><ele>189.85714285714286</ele><time>2026-04-08T07:31:42.592Z</time></trkpt><trkpt lat="44.7739919" lon="8.7898859"><ele>189.71428571428572</ele><time>2026-04-08T07:31:45.572Z</time></trkpt><trkpt lat="44.7740706" lon="8.7898552"><ele>189.57142857142856</ele><time>2026-04-08T07:31:51.571Z</time></trkpt><trkpt lat="44.7741466" lon="8.7898498"><ele>189.42857142857144</ele><time>2026-04-08T07:31:56.57Z</time></trkpt><trkpt lat="44.7742141" lon="8.7898167"><ele>189.28571428571428</ele><time>2026-04-08T07:32:01.57Z</time></trkpt><trkpt lat="44.7742855" lon="8.7897953"><ele>189.14285714285714</ele><time>2026-04-08T07:32:05.573Z</time></trkpt><trkpt lat="44.7743612" lon="8.789795"><ele>189.0</ele><time>2026-04-08T07:32:10.606Z</time></trkpt><trkpt lat="44.7744416" lon="8.7897923"><ele>188.85714285714286</ele><time>2026-04-08T07:32:18.548Z</time></trkpt><trkpt lat="44.7745054" lon="8.7898105"><ele>188.71428571428572</ele><time>2026-04-08T07:32:21.57Z</time></trkpt><trkpt lat="44.7745817" lon="8.7898244"><ele>188.57142857142856</ele><time>2026-04-08T07:32:27.591Z</time></trkpt><trkpt lat="44.7746505" lon="8.7898245"><ele>188.42857142857144</ele><time>2026-04-08T07:32:32.262Z</time></trkpt><trkpt lat="44.774712" lon="8.7898029"><ele>188.28571428571428</ele><time>2026-04-08T07:32:36.891Z</time></trkpt><trkpt lat="44.7747821" lon="8.7898015"><ele>188.14285714285714</ele><time>2026-04-08T07:32:40.544Z</time></trkpt><trkpt lat="44.7748495" lon="8.7898022"><ele>188.0</ele><time>2026-04-08T07:32:44.57Z</time></trkpt><trkpt lat="44.7749194" lon="8.7898024"><ele>188.0</ele><time>2026-04-08T07:32:50.57Z</time></trkpt><trkpt lat="44.7749874" lon="8.7898043"><ele>188.0</ele><time>2026-04-08T07:32:56.543Z</time></trkpt><trkpt lat="44.7750507" lon="8.7897709"><ele>188.0</ele><time>2026-04-08T07:33:00.208Z</time></trkpt><trkpt lat="44.7751254" lon="8.7897597"><ele>188.0</ele><time>2026-04-08T07:33:04.37Z</time></trkpt><trkpt lat="44.7752006" lon="8.7897293"><ele>188.0</ele><time>2026-04-08T07:33:08.124Z</time></trkpt><trkpt lat="44.7752614" lon="8.789693"><ele>188.0</ele><time>2026-04-08T07:33:12.782Z</time></trkpt><trkpt lat="44.7753378" lon="8.7896746"><ele>188.0</ele><time>2026-04-08T07:33:17.39Z</time></trkpt><trkpt lat="44.7755246" lon="8.7896675"><ele>187.75</ele><time>2026-04-08T07:33:34.064Z</time></trkpt><trkpt lat="44.7755932" lon="8.7896522"><ele>187.5</ele><time>2026-04-08T07:33:38.703Z</time></trkpt><trkpt lat="44.7757598" lon="8.7896717"><ele>187.25</ele><time>2026-04-08T07:33:53.57Z</time></trkpt><trkpt lat="44.7758266" lon="8.7896815"><ele>187.0</ele><time>2026-04-08T07:33:56.47Z</time></trkpt><trkpt lat="44.7760071" lon="8.7896439"><ele>187.0</ele><time>2026-04-08T07:34:08.581Z</time></trkpt><trkpt lat="44.7760818" lon="8.7896282"><ele>187.0</ele><time>2026-04-08T07:34:13.57Z</time></trkpt><trkpt lat="44.7761437" lon="8.789607"><ele>187.0</ele><time>2026-04-08T07:34:17.57Z</time></trkpt><trkpt lat="44.7762097" lon="8.7895975"><ele>187.0</ele><time>2026-04-08T07:34:20.578Z</time></trkpt><trkpt lat="44.7762801" lon="8.7896053"><ele>187.0</ele><time>2026-04-08T07:34:24.425Z</time></trkpt><trkpt lat="44.7763485" lon="8.7895998"><ele>187.0</ele><time>2026-04-08T07:34:28.469Z</time></trkpt><trkpt lat="44.7764179" lon="8.7896078"><ele>187.0</ele><time>2026-04-08T07:34:32.548Z</time></trkpt><trkpt lat="44.776501" lon="8.7895947"><ele>187.0</ele><time>2026-04-08T07:34:39.57Z</time></trkpt><trkpt lat="44.7765988" lon="8.7896066"><ele>187.0</ele><time>2026-04-08T07:34:44.288Z</time></trkpt><trkpt lat="44.7766666" lon="8.7895697"><ele>187.0</ele><time>2026-04-08T07:34:51.57Z</time></trkpt><trkpt lat="44.776742" lon="8.7895521"><ele>187.0</ele><time>2026-04-08T07:34:57.57Z</time></trkpt><trkpt lat="44.7768092" lon="8.7895646"><ele>187.0</ele><time>2026-04-08T07:35:01.535Z</time></trkpt><trkpt lat="44.7768721" lon="8.7895286"><ele>187.0</ele><time>2026-04-08T07:35:05.57Z</time></trkpt><trkpt lat="44.7769698" lon="8.7895309"><ele>186.42857142857142</ele><time>2026-04-08T07:35:08.577Z</time></trkpt><trkpt lat="44.7770392" lon="8.789491"><ele>185.85714285714286</ele><time>2026-04-08T07:35:14.491Z</time></trkpt><trkpt lat="44.7771044" lon="8.7894866"><ele>185.28571428571428</ele><time>2026-04-08T07:35:16.57Z</time></trkpt><trkpt lat="44.7771752" lon="8.7894981"><ele>184.71428571428572</ele><time>2026-04-08T07:35:20.57Z</time></trkpt><trkpt lat="44.7772466" lon="8.7894899"><ele>184.14285714285717</ele><time>2026-04-08T07:35:25.286Z</time></trkpt><trkpt lat="44.7773188" lon="8.7894736"><ele>183.57142857142858</ele><time>2026-04-08T07:35:30.57Z</time></trkpt><trkpt lat="44.7773959" lon="8.7894711"><ele>183.0</ele><time>2026-04-08T07:35:35.57Z</time></trkpt><trkpt lat="44.7774701" lon="8.7894639"><ele>183.0</ele><time>2026-04-08T07:35:55.57Z</time></trkpt><trkpt lat="44.7775426" lon="8.7894466"><ele>183.0</ele><time>2026-04-08T07:35:59.57Z</time></trkpt><trkpt lat="44.777617" lon="8.7894427"><ele>183.0</ele><time>2026-04-08T07:36:04.57Z</time></trkpt><trkpt lat="44.7776803" lon="8.7894401"><ele>183.0</ele><time>2026-04-08T07:36:09.592Z</time></trkpt><trkpt lat="44.7777463" lon="8.7894337"><ele>183.0</ele><time>2026-04-08T07:36:13.57Z</time></trkpt><trkpt lat="44.7778152" lon="8.7894421"><ele>183.0</ele><time>2026-04-08T07:36:16.57Z</time></trkpt><trkpt lat="44.7778819" lon="8.7894455"><ele>183.0</ele><time>2026-04-08T07:36:25.547Z</time></trkpt><trkpt lat="44.777966" lon="8.78945"><ele>182.85714285714286</ele><time>2026-04-08T07:36:30.57Z</time></trkpt><trkpt lat="44.7780332" lon="8.7894375"><ele>182.71428571428572</ele><time>2026-04-08T07:36:36.57Z</time></trkpt><trkpt lat="44.7781086" lon="8.7894285"><ele>182.57142857142856</ele><time>2026-04-08T07:36:40.571Z</time></trkpt><trkpt lat="44.7781748" lon="8.7894244"><ele>182.42857142857144</ele><time>2026-04-08T07:36:47.574Z</time></trkpt><trkpt lat="44.7782386" lon="8.7894125"><ele>182.28571428571428</ele><time>2026-04-08T07:36:51.57Z</time></trkpt><trkpt lat="44.7783094" lon="8.7894169"><ele>182.14285714285714</ele><time>2026-04-08T07:36:55.57Z</time></trkpt><trkpt lat="44.7783894" lon="8.7893699"><ele>182.0</ele><time>2026-04-08T07:37:00.571Z</time></trkpt><trkpt lat="44.7784563" lon="8.7893448"><ele>182.16666666666666</ele><time>2026-04-08T07:37:04.575Z</time></trkpt><trkpt lat="44.778538" lon="8.7893422"><ele>182.33333333333331</ele><time>2026-04-08T07:37:08.57Z</time></trkpt><trkpt lat="44.7786108" lon="8.7893122"><ele>182.5</ele><time>2026-04-08T07:37:11.57Z</time></trkpt><trkpt lat="44.7786909" lon="8.7893088"><ele>182.66666666666666</ele><time>2026-04-08T07:37:16.57Z</time></trkpt><trkpt lat="44.7787586" lon="8.7893097"><ele>182.83333333333334</ele><time>2026-04-08T07:37:20.57Z</time></trkpt><trkpt lat="44.77884" lon="8.7892998"><ele>183.0</ele><time>2026-04-08T07:37:25.584Z</time></trkpt><trkpt lat="44.7789117" lon="8.7892857"><ele>183.0</ele><time>2026-04-08T07:37:29.572Z</time></trkpt><trkpt lat="44.7789826" lon="8.7892594"><ele>183.0</ele><time>2026-04-08T07:37:33.57Z</time></trkpt><trkpt lat="44.7790473" lon="8.7892746"><ele>183.0</ele><time>2026-04-08T07:37:38.57Z</time></trkpt><trkpt lat="44.7791138" lon="8.7892642"><ele>183.0</ele><time>2026-04-08T07:37:42.57Z</time></trkpt><trkpt lat="44.7791846" lon="8.7892657"><ele>183.0</ele><time>2026-04-08T07:37:45.57Z</time></trkpt><trkpt lat="44.7792483" lon="8.789268"><ele>183.0</ele><time>2026-04-08T07:37:50.57Z</time></trkpt><trkpt lat="44.7793212" lon="8.7892606"><ele>183.0</ele><time>2026-04-08T07:37:55.606Z</time></trkpt><trkpt lat="44.7794137" lon="8.7892501"><ele>182.85714285714286</ele><time>2026-04-08T07:38:00.562Z</time></trkpt><trkpt lat="44.7794788" lon="8.7892468"><ele>182.71428571428572</ele><time>2026-04-08T07:38:03.57Z</time></trkpt><trkpt lat="44.7795488" lon="8.78924"><ele>182.57142857142856</ele><time>2026-04-08T07:38:08.589Z</time></trkpt><trkpt lat="44.7796341" lon="8.7892195"><ele>182.42857142857144</ele><time>2026-04-08T07:38:12.57Z</time></trkpt><trkpt lat="44.7797039" lon="8.7892088"><ele>182.28571428571428</ele><time>2026-04-08T07:38:16.57Z</time></trkpt><trkpt lat="44.7797757" lon="8.7891849"><ele>182.14285714285714</ele><time>2026-04-08T07:38:21.57Z</time></trkpt><trkpt lat="44.7798513" lon="8.7891842"><ele>182.0</ele><time>2026-04-08T07:38:25.571Z</time></trkpt><trkpt lat="44.7799283" lon="8.789174"><ele>182.0</ele><time>2026-04-08T07:38:30.57Z</time></trkpt><trkpt lat="44.7800076" lon="8.7891754"><ele>182.0</ele><time>2026-04-08T07:38:36.571Z</time></trkpt><trkpt lat="44.7800875" lon="8.7891713"><ele>182.0</ele><time>2026-04-08T07:38:42.57Z</time></trkpt><trkpt lat="44.7801583" lon="8.7891616"><ele>182.0</ele><time>2026-04-08T07:38:46.57Z</time></trkpt><trkpt lat="44.7802235" lon="8.7891327"><ele>182.0</ele><time>2026-04-08T07:38:50.571Z</time></trkpt><trkpt lat="44.7802885" lon="8.7891464"><ele>182.0</ele><time>2026-04-08T07:38:54.57Z</time></trkpt><trkpt lat="44.7803545" lon="8.7891307"><ele>182.0</ele><time>2026-04-08T07:39:00.488Z</time></trkpt><trkpt lat="44.7804284" lon="8.7891372"><ele>181.85714285714286</ele><time>2026-04-08T07:39:04.57Z</time></trkpt><trkpt lat="44.7804917" lon="8.7891529"><ele>181.71428571428572</ele><time>2026-04-08T07:39:10.468Z</time></trkpt><trkpt lat="44.7805607" lon="8.789137"><ele>181.57142857142856</ele><time>2026-04-08T07:39:13.582Z</time></trkpt><trkpt lat="44.7806331" lon="8.7891338"><ele>181.42857142857144</ele><time>2026-04-08T07:39:19.466Z</time></trkpt><trkpt lat="44.7806963" lon="8.7891191"><ele>181.28571428571428</ele><time>2026-04-08T07:39:22.57Z</time></trkpt><trkpt lat="44.7807777" lon="8.7891074"><ele>181.14285714285714</ele><time>2026-04-08T07:39:29.57Z</time></trkpt><trkpt lat="44.7808458" lon="8.7891068"><ele>181.0</ele><time>2026-04-08T07:39:34.362Z</time></trkpt><trkpt lat="44.7809089" lon="8.7891059"><ele>181.0</ele><time>2026-04-08T07:39:38.57Z</time></trkpt><trkpt lat="44.7809874" lon="8.7890849"><ele>181.0</ele><time>2026-04-08T07:39:42.525Z</time></trkpt><trkpt lat="44.7810592" lon="8.7890806"><ele>181.0</ele><time>2026-04-08T07:39:48.57Z</time></trkpt><trkpt lat="44.781136" lon="8.7890714"><ele>181.0</ele><time>2026-04-08T07:39:53.57Z</time></trkpt><trkpt lat="44.7812104" lon="8.7890693"><ele>181.0</ele><time>2026-04-08T07:39:58.306Z</time></trkpt><trkpt lat="44.7812919" lon="8.7890779"><ele>181.0</ele><time>2026-04-08T07:40:03.57Z</time></trkpt><trkpt lat="44.7813575" lon="8.7890773"><ele>180.85714285714286</ele><time>2026-04-08T07:40:08.286Z</time></trkpt><trkpt lat="44.7814268" lon="8.7890743"><ele>180.71428571428572</ele><time>2026-04-08T07:40:11.923Z</time></trkpt><trkpt lat="44.781496" lon="8.7890725"><ele>180.57142857142856</ele><time>2026-04-08T07:40:16.023Z</time></trkpt><trkpt lat="44.7815594" lon="8.7890577"><ele>180.42857142857144</ele><time>2026-04-08T07:40:21.029Z</time></trkpt><trkpt lat="44.7816309" lon="8.7890717"><ele>180.2857142857143</ele><time>2026-04-08T07:40:25.23Z</time></trkpt><trkpt lat="44.7816954" lon="8.7890857"><ele>180.14285714285714</ele><time>2026-04-08T07:40:29.57Z</time></trkpt><trkpt lat="44.7817555" lon="8.7890555"><ele>180.0</ele><time>2026-04-08T07:40:35.571Z</time></trkpt><trkpt lat="44.7818229" lon="8.7890449"><ele>179.7142857142857</ele><time>2026-04-08T07:40:40.344Z</time></trkpt><trkpt lat="44.7818919" lon="8.7890569"><ele>179.42857142857144</ele><time>2026-04-08T07:40:44.545Z</time></trkpt><trkpt lat="44.7819555" lon="8.7890205"><ele>179.14285714285714</ele><time>2026-04-08T07:40:49.502Z</time></trkpt><trkpt lat="44.7820227" lon="8.7890242"><ele>178.85714285714283</ele><time>2026-04-08T07:40:52.243Z</time></trkpt><trkpt lat="44.7820863" lon="8.7890066"><ele>178.57142857142856</ele><time>2026-04-08T07:40:55.024Z</time></trkpt><trkpt lat="44.7821576" lon="8.7889964"><ele>178.28571428571428</ele><time>2026-04-08T07:41:00.57Z</time></trkpt><trkpt lat="44.7822341" lon="8.7889814"><ele>178.0</ele><time>2026-04-08T07:41:05.541Z</time></trkpt><trkpt lat="44.7823049" lon="8.7889925"><ele>178.0</ele><time>2026-04-08T07:41:10.486Z</time></trkpt><trkpt lat="44.7823743" lon="8.7889872"><ele>178.0</ele><time>2026-04-08T07:41:15.546Z</time></trkpt></trkseg><trkseg><trkpt lat="44.7894115" lon="8.7810684"><ele>174.85714285714286</ele><time>2026-04-08T07:54:57.622Z</time></trkpt><trkpt lat="44.7893174" lon="8.7810215"><ele>174.71428571428572</ele><time>2026-04-08T07:55:00.57Z</time></trkpt><trkpt lat="44.789252" lon="8.7809702"><ele>174.57142857142856</ele><time>2026-04-08T07:55:04.504Z</time></trkpt><trkpt lat="44.7892045" lon="8.7809059"><ele>174.42857142857144</ele><time>2026-04-08T07:55:14.603Z</time></trkpt><trkpt lat="44.7892018" lon="8.7808156"><ele>174.28571428571428</ele><time>2026-04-08T07:55:19.57Z</time></trkpt><trkpt lat="44.7892125" lon="8.780728"><ele>174.14285714285714</ele><time>2026-04-08T07:55:23.57Z</time></trkpt><trkpt lat="44.789203" lon="8.7806273"><ele>174.0</ele><time>2026-04-08T07:55:29.575Z</time></trkpt><trkpt lat="44.7892202" lon="8.7805414"><ele>173.71428571428572</ele><time>2026-04-08T07:55:48.57Z</time></trkpt><trkpt lat="44.7892854" lon="8.7805476"><ele>173.42857142857144</ele><time>2026-04-08T07:55:53.465Z</time></trkpt><trkpt lat="44.7893577" lon="8.780576"><ele>173.14285714285717</ele><time>2026-04-08T07:55:58.57Z</time></trkpt><trkpt lat="44.7894367" lon="8.7805686"><ele>172.85714285714286</ele><time>2026-04-08T07:56:05.007Z</time></trkpt><trkpt lat="44.789507" lon="8.7805738"><ele>172.57142857142858</ele><time>2026-04-08T07:56:10.021Z</time></trkpt><trkpt lat="44.7895776" lon="8.780597"><ele>172.2857142857143</ele><time>2026-04-08T07:56:17.57Z</time></trkpt><trkpt lat="44.7896476" lon="8.7806256"><ele>172.0</ele><time>2026-04-08T07:56:21.484Z</time></trkpt><trkpt lat="44.7897261" lon="8.7806609"><ele>172.00000000000003</ele><time>2026-04-08T07:56:25.586Z</time></trkpt><trkpt lat="44.7897874" lon="8.7806886"><ele>172.0</ele><time>2026-04-08T07:56:29.548Z</time></trkpt><trkpt lat="44.7898551" lon="8.7807267"><ele>172.0</ele><time>2026-04-08T07:56:33.57Z</time></trkpt><trkpt lat="44.789927" lon="8.7807521"><ele>172.0</ele><time>2026-04-08T07:56:37.57Z</time></trkpt><trkpt lat="44.7899984" lon="8.7807409"><ele>172.0</ele><time>2026-04-08T07:56:43.577Z</time></trkpt><trkpt lat="44.7900666" lon="8.7807493"><ele>172.00000000000003</ele><time>2026-04-08T07:56:47.57Z</time></trkpt><trkpt lat="44.7901367" lon="8.7807463"><ele>172.0</ele><time>2026-04-08T07:56:52.301Z</time></trkpt><trkpt lat="44.7902038" lon="8.7806905"><ele>171.57142857142858</ele><time>2026-04-08T07:56:59.57Z</time></trkpt><trkpt lat="44.7902726" lon="8.7806919"><ele>171.14285714285714</ele><time>2026-04-08T07:57:03.563Z</time></trkpt><trkpt lat="44.7903367" lon="8.7807107"><ele>170.71428571428572</ele><time>2026-04-08T07:57:08.57Z</time></trkpt><trkpt lat="44.7904143" lon="8.7807165"><ele>170.28571428571428</ele><time>2026-04-08T07:57:15.262Z</time></trkpt><trkpt lat="44.7904881" lon="8.7807035"><ele>169.85714285714286</ele><time>2026-04-08T07:57:19.578Z</time></trkpt><trkpt lat="44.7905678" lon="8.780691"><ele>169.42857142857144</ele><time>2026-04-08T07:57:23.326Z</time></trkpt><trkpt lat="44.7906295" lon="8.78073"><ele>169.0</ele><time>2026-04-08T07:57:26.047Z</time></trkpt><trkpt lat="44.7907031" lon="8.7807604"><ele>169.0</ele><time>2026-04-08T07:57:30.178Z</time></trkpt><trkpt lat="44.7907581" lon="8.7808098"><ele>169.0</ele><time>2026-04-08T07:57:34.36Z</time></trkpt><trkpt lat="44.7908261" lon="8.7808192"><ele>169.0</ele><time>2026-04-08T07:57:36.544Z</time></trkpt><trkpt lat="44.790903" lon="8.7808391"><ele>169.0</ele><time>2026-04-08T07:57:40.57Z</time></trkpt><trkpt lat="44.7909982" lon="8.7808789"><ele>169.0</ele><time>2026-04-08T07:57:47.279Z</time></trkpt><trkpt lat="44.791063" lon="8.7808984"><ele>169.0</ele><time>2026-04-08T07:57:52.404Z</time></trkpt><trkpt lat="44.791126" lon="8.7809186"><ele>169.0</ele><time>2026-04-08T07:57:56.426Z</time></trkpt><trkpt lat="44.7912028" lon="8.7809261"><ele>169.0</ele><time>2026-04-08T07:58:02.385Z</time></trkpt><trkpt lat="44.7912887" lon="8.7809308"><ele>169.0</ele><time>2026-04-08T07:58:08.57Z</time></trkpt><trkpt lat="44.7913665" lon="8.7809403"><ele>169.0</ele><time>2026-04-08T07:58:11.57Z</time></trkpt><trkpt lat="44.7914449" lon="8.7809418"><ele>169.0</ele><time>2026-04-08T07:58:15.404Z</time></trkpt><trkpt lat="44.7915148" lon="8.7809148"><ele>169.0</ele><time>2026-04-08T07:58:19.567Z</time></trkpt><trkpt lat="44.7915823" lon="8.7808652"><ele>169.0</ele><time>2026-04-08T07:58:24.597Z</time></trkpt><trkpt lat="44.7916507" lon="8.7808125"><ele>169.0</ele><time>2026-04-08T07:58:27.58Z</time></trkpt><trkpt lat="44.7917123" lon="8.7807678"><ele>169.0</ele><time>2026-04-08T07:58:31.57Z</time></trkpt><trkpt lat="44.791785" lon="8.7807585"><ele>169.0</ele><time>2026-04-08T07:58:36.57Z</time></trkpt><trkpt lat="44.7918546" lon="8.7807513"><ele>169.0</ele><time>2026-04-08T07:58:40.57Z</time></trkpt><trkpt lat="44.7919208" lon="8.7807567"><ele>169.0</ele><time>2026-04-08T07:58:44.57Z</time></trkpt><trkpt lat="44.7919838" lon="8.7808363"><ele>169.0</ele><time>2026-04-08T07:58:50.57Z</time></trkpt><trkpt lat="44.7920444" lon="8.7808785"><ele>169.0</ele><time>2026-04-08T07:58:54.57Z</time></trkpt><trkpt lat="44.7921206" lon="8.7809452"><ele>169.14285714285714</ele><time>2026-04-08T07:58:58.446Z</time></trkpt><trkpt lat="44.792198" lon="8.7809733"><ele>169.28571428571428</ele><time>2026-04-08T07:59:03.57Z</time></trkpt><trkpt lat="44.7922672" lon="8.780974"><ele>169.42857142857144</ele><time>2026-04-08T07:59:07.483Z</time></trkpt><trkpt lat="44.792334" lon="8.7809628"><ele>169.57142857142856</ele><time>2026-04-08T07:59:12.421Z</time></trkpt><trkpt lat="44.7923979" lon="8.7809571"><ele>169.7142857142857</ele><time>2026-04-08T07:59:18.466Z</time></trkpt><trkpt lat="44.7924761" lon="8.7809728"><ele>169.85714285714286</ele><time>2026-04-08T07:59:23.362Z</time></trkpt><trkpt lat="44.7925541" lon="8.7810197"><ele>170.0</ele><time>2026-04-08T07:59:27.604Z</time></trkpt><trkpt lat="44.7926209" lon="8.7810139"><ele>170.0</ele><time>2026-04-08T07:59:32.519Z</time></trkpt><trkpt lat="44.7926906" lon="8.7810269"><ele>170.0</ele><time>2026-04-08T07:59:41.57Z</time></trkpt><trkpt lat="44.7927555" lon="8.7810071"><ele>170.0</ele><time>2026-04-08T07:59:43.625Z</time></trkpt><trkpt lat="44.7928345" lon="8.7810158"><ele>170.0</ele><time>2026-04-08T07:59:48.547Z</time></trkpt><trkpt lat="44.7929479" lon="8.7810622"><ele>170.0</ele><time>2026-04-08T07:59:58.594Z</time></trkpt><trkpt lat="44.7930225" lon="8.7809504"><ele>170.0</ele><time>2026-04-08T08:00:06.58Z</time></trkpt><trkpt lat="44.793097" lon="8.7809755"><ele>170.0</ele><time>2026-04-08T08:00:09.484Z</time></trkpt><trkpt lat="44.7931619" lon="8.7810094"><ele>170.0</ele><time>2026-04-08T08:00:14.587Z</time></trkpt><trkpt lat="44.7932249" lon="8.7810268"><ele>170.0</ele><time>2026-04-08T08:00:17.468Z</time></trkpt><trkpt lat="44.7933129" lon="8.7810346"><ele>170.0</ele><time>2026-04-08T08:00:20.57Z</time></trkpt><trkpt lat="44.793377" lon="8.7810392"><ele>170.0</ele><time>2026-04-08T08:00:24.57Z</time></trkpt><trkpt lat="44.7934411" lon="8.7810528"><ele>170.0</ele><time>2026-04-08T08:00:28.542Z</time></trkpt><trkpt lat="44.7935055" lon="8.781041"><ele>170.0</ele><time>2026-04-08T08:00:32.57Z</time></trkpt><trkpt lat="44.7935539" lon="8.7809805"><ele>170.14285714285714</ele><time>2026-04-08T08:00:36.571Z</time></trkpt><trkpt lat="44.7936203" lon="8.7809978"><ele>170.28571428571428</ele><time>2026-04-08T08:00:40.57Z</time></trkpt><trkpt lat="44.7936764" lon="8.7810414"><ele>170.42857142857142</ele><time>2026-04-08T08:00:46.57Z</time></trkpt><trkpt lat="44.7937398" lon="8.7810857"><ele>170.57142857142856</ele><time>2026-04-08T08:00:52.604Z</time></trkpt><trkpt lat="44.7938063" lon="8.7811163"><ele>170.71428571428572</ele><time>2026-04-08T08:00:56.527Z</time></trkpt><trkpt lat="44.7938913" lon="8.7811275"><ele>170.85714285714283</ele><time>2026-04-08T08:01:02.445Z</time></trkpt><trkpt lat="44.7939506" lon="8.7811669"><ele>171.0</ele><time>2026-04-08T08:01:10.382Z</time></trkpt><trkpt lat="44.7940172" lon="8.7811442"><ele>170.99999999999997</ele><time>2026-04-08T08:01:14.57Z</time></trkpt><trkpt lat="44.7940752" lon="8.7811008"><ele>171.0</ele><time>2026-04-08T08:01:18.57Z</time></trkpt><trkpt lat="44.7941353" lon="8.7810495"><ele>171.0</ele><time>2026-04-08T08:01:22.572Z</time></trkpt><trkpt lat="44.7941919" lon="8.7810077"><ele>171.0</ele><time>2026-04-08T08:01:26.558Z</time></trkpt><trkpt lat="44.7942594" lon="8.7809678"><ele>171.0</ele><time>2026-04-08T08:01:31.603Z</time></trkpt><trkpt lat="44.7943216" lon="8.7809253"><ele>170.99999999999997</ele><time>2026-04-08T08:01:35.57Z</time></trkpt><trkpt lat="44.7943749" lon="8.780874"><ele>171.0</ele><time>2026-04-08T08:01:39.57Z</time></trkpt><trkpt lat="44.7944192" lon="8.7807921"><ele>170.42857142857142</ele><time>2026-04-08T08:01:44.404Z</time></trkpt><trkpt lat="44.7944488" lon="8.7807102"><ele>169.85714285714286</ele><time>2026-04-08T08:01:48.57Z</time></trkpt><trkpt lat="44.7944664" lon="8.7805902"><ele>169.28571428571428</ele><time>2026-04-08T08:02:23.57Z</time></trkpt><trkpt lat="44.7944887" lon="8.7804862"><ele>168.71428571428572</ele><time>2026-04-08T08:02:29.571Z</time></trkpt><trkpt lat="44.7945122" lon="8.7803834"><ele>168.14285714285714</ele><time>2026-04-08T08:02:54.955Z</time></trkpt><trkpt lat="44.7945465" lon="8.7803036"><ele>167.57142857142856</ele><time>2026-04-08T08:02:59.58Z</time></trkpt><trkpt lat="44.7945596" lon="8.7802118"><ele>167.0</ele><time>2026-04-08T08:03:06.57Z</time></trkpt><trkpt lat="44.7945817" lon="8.7801282"><ele>166.83333333333331</ele><time>2026-04-08T08:03:11.57Z</time></trkpt><trkpt lat="44.7945707" lon="8.7800049"><ele>166.66666666666666</ele><time>2026-04-08T08:03:17.57Z</time></trkpt><trkpt lat="44.7945934" lon="8.7798861"><ele>166.5</ele><time>2026-04-08T08:03:23.57Z</time></trkpt><trkpt lat="44.7946028" lon="8.7797918"><ele>166.33333333333334</ele><time>2026-04-08T08:03:28.57Z</time></trkpt><trkpt lat="44.7945836" lon="8.7796828"><ele>166.16666666666669</ele><time>2026-04-08T08:03:36.114Z</time></trkpt><trkpt lat="44.7945271" lon="8.7796259"><ele>166.0</ele><time>2026-04-08T08:03:40.336Z</time></trkpt><trkpt lat="44.7944713" lon="8.7795831"><ele>166.0</ele><time>2026-04-08T08:03:43.455Z</time></trkpt><trkpt lat="44.7943986" lon="8.7795284"><ele>166.0</ele><time>2026-04-08T08:03:47.091Z</time></trkpt><trkpt lat="44.7943309" lon="8.7794811"><ele>166.0</ele><time>2026-04-08T08:03:50.358Z</time></trkpt><trkpt lat="44.7942596" lon="8.7794494"><ele>166.0</ele><time>2026-04-08T08:03:57.152Z</time></trkpt><trkpt lat="44.794201" lon="8.7794062"><ele>166.0</ele><time>2026-04-08T08:04:00.837Z</time></trkpt><trkpt lat="44.7941328" lon="8.77938"><ele>166.0</ele><time>2026-04-08T08:04:04.473Z</time></trkpt><trkpt lat="44.7940603" lon="8.7793221"><ele>165.66666666666669</ele><time>2026-04-08T08:04:09.57Z</time></trkpt><trkpt lat="44.7939932" lon="8.7792906"><ele>165.33333333333334</ele><time>2026-04-08T08:04:13.57Z</time></trkpt><trkpt lat="44.793924" lon="8.7792528"><ele>165.0</ele><time>2026-04-08T08:04:17.412Z</time></trkpt><trkpt lat="44.7938464" lon="8.7792281"><ele>164.66666666666666</ele><time>2026-04-08T08:04:22.029Z</time></trkpt><trkpt lat="44.7937778" lon="8.7792142"><ele>164.33333333333331</ele><time>2026-04-08T08:04:26.676Z</time></trkpt><trkpt lat="44.7937097" lon="8.7792011"><ele>164.0</ele><time>2026-04-08T08:04:35.516Z</time></trkpt><trkpt lat="44.7936208" lon="8.7792228"><ele>164.0</ele><time>2026-04-08T08:04:38.57Z</time></trkpt><trkpt lat="44.7935533" lon="8.7792403"><ele>164.0</ele><time>2026-04-08T08:04:41.57Z</time></trkpt><trkpt lat="44.7934813" lon="8.7792387"><ele>164.0</ele><time>2026-04-08T08:04:48.57Z</time></trkpt><trkpt lat="44.7934014" lon="8.7792748"><ele>164.0</ele><time>2026-04-08T08:04:51.581Z</time></trkpt><trkpt lat="44.7933352" lon="8.779275"><ele>164.0</ele><time>2026-04-08T08:04:56.57Z</time></trkpt><trkpt lat="44.7932507" lon="8.7792889"><ele>164.0</ele><time>2026-04-08T08:05:02.571Z</time></trkpt><trkpt lat="44.7931755" lon="8.7793013"><ele>164.14285714285714</ele><time>2026-04-08T08:05:08.311Z</time></trkpt><trkpt lat="44.7931096" lon="8.7793057"><ele>164.28571428571428</ele><time>2026-04-08T08:05:11.976Z</time></trkpt><trkpt lat="44.7930438" lon="8.7793022"><ele>164.42857142857144</ele><time>2026-04-08T08:05:15.629Z</time></trkpt><trkpt lat="44.7929648" lon="8.7793092"><ele>164.57142857142856</ele><time>2026-04-08T08:05:20.57Z</time></trkpt><trkpt lat="44.7928982" lon="8.7793307"><ele>164.71428571428572</ele><time>2026-04-08T08:05:24.57Z</time></trkpt><trkpt lat="44.7928291" lon="8.7793363"><ele>164.85714285714286</ele><time>2026-04-08T08:05:30.477Z</time></trkpt><trkpt lat="44.792762" lon="8.7793195"><ele>165.0</ele><time>2026-04-08T08:05:38.511Z</time></trkpt><trkpt lat="44.7927399" lon="8.779406"><ele>165.2857142857143</ele><time>2026-04-08T08:06:00.069Z</time></trkpt><trkpt lat="44.7927589" lon="8.7794952"><ele>165.57142857142858</ele><time>2026-04-08T08:06:03.34Z</time></trkpt><trkpt lat="44.7927763" lon="8.7795823"><ele>165.85714285714286</ele><time>2026-04-08T08:06:06.96Z</time></trkpt><trkpt lat="44.7927833" lon="8.7796744"><ele>166.14285714285717</ele><time>2026-04-08T08:06:11.99Z</time></trkpt><trkpt lat="44.7927783" lon="8.7797793"><ele>166.42857142857144</ele><time>2026-04-08T08:06:17.57Z</time></trkpt><trkpt lat="44.7927684" lon="8.7798758"><ele>166.71428571428572</ele><time>2026-04-08T08:06:22.571Z</time></trkpt><trkpt lat="44.7927715" lon="8.779979"><ele>167.0</ele><time>2026-04-08T08:06:28.57Z</time></trkpt><trkpt lat="44.7927684" lon="8.780068"><ele>167.0</ele><time>2026-04-08T08:06:33.57Z</time></trkpt><trkpt lat="44.7927565" lon="8.7801658"><ele>167.0</ele><time>2026-04-08T08:06:46.57Z</time></trkpt><trkpt lat="44.7927444" lon="8.7802621"><ele>167.0</ele><time>2026-04-08T08:07:03.549Z</time></trkpt><trkpt lat="44.7926919" lon="8.7803293"><ele>167.0</ele><time>2026-04-08T08:07:07.518Z</time></trkpt><trkpt lat="44.7927271" lon="8.7804922"><ele>167.0</ele><time>2026-04-08T08:07:12.57Z</time></trkpt><trkpt lat="44.7927632" lon="8.7805963"><ele>167.0</ele><time>2026-04-08T08:07:13.541Z</time></trkpt><trkpt lat="44.7927432" lon="8.7805004"><ele>167.42857142857142</ele><time>2026-04-08T08:07:23.756Z</time></trkpt><trkpt lat="44.7926817" lon="8.7804063"><ele>167.85714285714286</ele><time>2026-04-08T08:07:30.57Z</time></trkpt><trkpt lat="44.7926224" lon="8.78037"><ele>168.28571428571428</ele><time>2026-04-08T08:07:35.57Z</time></trkpt><trkpt lat="44.7925622" lon="8.7803387"><ele>168.71428571428572</ele><time>2026-04-08T08:07:40.472Z</time></trkpt><trkpt lat="44.7925039" lon="8.7803021"><ele>169.14285714285714</ele><time>2026-04-08T08:07:44.57Z</time></trkpt><trkpt lat="44.7924309" lon="8.7802853"><ele>169.57142857142858</ele><time>2026-04-08T08:07:49.57Z</time></trkpt><trkpt lat="44.7923657" lon="8.7802559"><ele>170.0</ele><time>2026-04-08T08:07:59.393Z</time></trkpt><trkpt lat="44.7922911" lon="8.7802067"><ele>169.4</ele><time>2026-04-08T08:08:04.57Z</time></trkpt><trkpt lat="44.7921719" lon="8.7801651"><ele>168.8</ele><time>2026-04-08T08:08:08.57Z</time></trkpt><trkpt lat="44.7920688" lon="8.7801172"><ele>168.2</ele><time>2026-04-08T08:08:18.57Z</time></trkpt><trkpt lat="44.7921338" lon="8.7801507"><ele>167.6</ele><time>2026-04-08T08:08:19.574Z</time></trkpt><trkpt lat="44.7920425" lon="8.7801027"><ele>167.0</ele><time>2026-04-08T08:08:20.57Z</time></trkpt><trkpt lat="44.7919843" lon="8.7800656"><ele>167.0</ele><time>2026-04-08T08:08:22.57Z</time></trkpt><trkpt lat="44.791919" lon="8.7800593"><ele>167.0</ele><time>2026-04-08T08:08:29.158Z</time></trkpt><trkpt lat="44.7918585" lon="8.7800272"><ele>167.0</ele><time>2026-04-08T08:08:35.576Z</time></trkpt><trkpt lat="44.7917507" lon="8.7799642"><ele>167.0</ele><time>2026-04-08T08:08:39.57Z</time></trkpt><trkpt lat="44.7916527" lon="8.7799113"><ele>167.0</ele><time>2026-04-08T08:08:47.57Z</time></trkpt><trkpt lat="44.7915883" lon="8.7798789"><ele>167.0</ele><time>2026-04-08T08:08:48.57Z</time></trkpt><trkpt lat="44.7915276" lon="8.779848"><ele>167.16666666666666</ele><time>2026-04-08T08:08:52.57Z</time></trkpt><trkpt lat="44.7914595" lon="8.7798129"><ele>167.33333333333331</ele><time>2026-04-08T08:09:00.056Z</time></trkpt><trkpt lat="44.791393" lon="8.779775"><ele>167.5</ele><time>2026-04-08T08:09:07.57Z</time></trkpt><trkpt lat="44.7913088" lon="8.7797215"><ele>167.66666666666666</ele><time>2026-04-08T08:09:11.57Z</time></trkpt><trkpt lat="44.7912415" lon="8.7797062"><ele>167.83333333333334</ele><time>2026-04-08T08:09:16.57Z</time></trkpt><trkpt lat="44.7911667" lon="8.7796749"><ele>168.0</ele><time>2026-04-08T08:09:17.57Z</time></trkpt><trkpt lat="44.7910956" lon="8.7796195"><ele>168.0</ele><time>2026-04-08T08:09:23.57Z</time></trkpt><trkpt lat="44.7910084" lon="8.7795731"><ele>168.0</ele><time>2026-04-08T08:09:29.571Z</time></trkpt><trkpt lat="44.7909422" lon="8.7795717"><ele>168.0</ele><time>2026-04-08T08:09:34.57Z</time></trkpt><trkpt lat="44.7908752" lon="8.7795493"><ele>168.0</ele><time>2026-04-08T08:09:44.57Z</time></trkpt><trkpt lat="44.7908023" lon="8.7795434"><ele>168.0</ele><time>2026-04-08T08:09:47.571Z</time></trkpt><trkpt lat="44.7907437" lon="8.7795077"><ele>168.0</ele><time>2026-04-08T08:09:53.57Z</time></trkpt><trkpt lat="44.7906735" lon="8.7794911"><ele>168.0</ele><time>2026-04-08T08:09:58.595Z</time></trkpt><trkpt lat="44.7905644" lon="8.7794443"><ele>168.2</ele><time>2026-04-08T08:10:03.57Z</time></trkpt><trkpt lat="44.7904859" lon="8.7793953"><ele>168.4</ele><time>2026-04-08T08:10:08.57Z</time></trkpt><trkpt lat="44.7904181" lon="8.7793568"><ele>168.6</ele><time>2026-04-08T08:10:13.57Z</time></trkpt><trkpt lat="44.7903327" lon="8.7792418"><ele>168.79999999999998</ele><time>2026-04-08T08:10:22.57Z</time></trkpt><trkpt lat="44.7902253" lon="8.7792051"><ele>169.0</ele><time>2026-04-08T08:10:25.57Z</time></trkpt><trkpt lat="44.7901617" lon="8.7791686"><ele>168.71428571428572</ele><time>2026-04-08T08:10:32.418Z</time></trkpt><trkpt lat="44.790096" lon="8.7791583"><ele>168.42857142857142</ele><time>2026-04-08T08:10:36.629Z</time></trkpt><trkpt lat="44.7900298" lon="8.7791139"><ele>168.14285714285714</ele><time>2026-04-08T08:10:39.574Z</time></trkpt><trkpt lat="44.7899548" lon="8.7790749"><ele>167.85714285714286</ele><time>2026-04-08T08:10:44.57Z</time></trkpt><trkpt lat="44.7898848" lon="8.7790669"><ele>167.57142857142858</ele><time>2026-04-08T08:10:47.57Z</time></trkpt><trkpt lat="44.7898148" lon="8.779056"><ele>167.28571428571428</ele><time>2026-04-08T08:10:55.427Z</time></trkpt><trkpt lat="44.7897545" lon="8.7790212"><ele>167.0</ele><time>2026-04-08T08:10:59.135Z</time></trkpt><trkpt lat="44.7896902" lon="8.7789937"><ele>167.0</ele><time>2026-04-08T08:11:03.57Z</time></trkpt><trkpt lat="44.7896186" lon="8.7789604"><ele>167.0</ele><time>2026-04-08T08:11:08.37Z</time></trkpt><trkpt lat="44.7895504" lon="8.7789122"><ele>167.0</ele><time>2026-04-08T08:11:12.57Z</time></trkpt><trkpt lat="44.7894801" lon="8.778861"><ele>167.0</ele><time>2026-04-08T08:11:17.596Z</time></trkpt><trkpt lat="44.7894131" lon="8.7788284"><ele>167.0</ele><time>2026-04-08T08:11:21.57Z</time></trkpt><trkpt lat="44.789345" lon="8.7788026"><ele>167.0</ele><time>2026-04-08T08:11:23.57Z</time></trkpt><trkpt lat="44.7892579" lon="8.7787738"><ele>167.0</ele><time>2026-04-08T08:11:28.57Z</time></trkpt><trkpt lat="44.7891924" lon="8.7787523"><ele>167.0</ele><time>2026-04-08T08:11:36.59Z</time></trkpt><trkpt lat="44.7891187" lon="8.7787313"><ele>167.0</ele><time>2026-04-08T08:11:40.57Z</time></trkpt><trkpt lat="44.7890575" lon="8.778688"><ele>167.0</ele><time>2026-04-08T08:11:51.57Z</time></trkpt><trkpt lat="44.7889889" lon="8.7786591"><ele>167.0</ele><time>2026-04-08T08:12:01.57Z</time></trkpt><trkpt lat="44.7889187" lon="8.7786516"><ele>167.0</ele><time>2026-04-08T08:12:11.57Z</time></trkpt><trkpt lat="44.7888421" lon="8.7786263"><ele>167.0</ele><time>2026-04-08T08:12:18.57Z</time></trkpt><trkpt lat="44.7887931" lon="8.7785701"><ele>167.0</ele><time>2026-04-08T08:12:24.514Z</time></trkpt><trkpt lat="44.788733" lon="8.7785183"><ele>167.0</ele><time>2026-04-08T08:12:29.37Z</time></trkpt><trkpt lat="44.7886664" lon="8.7784934"><ele>167.0</ele><time>2026-04-08T08:12:35.249Z</time></trkpt><trkpt lat="44.7885965" lon="8.7784708"><ele>167.0</ele><time>2026-04-08T08:12:41.159Z</time></trkpt><trkpt lat="44.7885347" lon="8.7784426"><ele>167.0</ele><time>2026-04-08T08:12:45.57Z</time></trkpt><trkpt lat="44.7884702" lon="8.7784198"><ele>167.0</ele><time>2026-04-08T08:12:47.57Z</time></trkpt><trkpt lat="44.7883502" lon="8.7783664"><ele>167.33333333333331</ele><time>2026-04-08T08:12:53.257Z</time></trkpt><trkpt lat="44.7882885" lon="8.7783338"><ele>167.66666666666666</ele><time>2026-04-08T08:12:54.179Z</time></trkpt><trkpt lat="44.7882213" lon="8.7782905"><ele>168.0</ele><time>2026-04-08T08:13:00.239Z</time></trkpt><trkpt lat="44.7881405" lon="8.7782396"><ele>168.33333333333334</ele><time>2026-04-08T08:13:05.57Z</time></trkpt><trkpt lat="44.7880786" lon="8.7782084"><ele>168.66666666666669</ele><time>2026-04-08T08:13:10.57Z</time></trkpt><trkpt lat="44.7879947" lon="8.7781587"><ele>169.0</ele><time>2026-04-08T08:13:15.57Z</time></trkpt><trkpt lat="44.7879268" lon="8.77813"><ele>169.0</ele><time>2026-04-08T08:13:19.571Z</time></trkpt><trkpt lat="44.7878518" lon="8.7781099"><ele>169.0</ele><time>2026-04-08T08:13:25.586Z</time></trkpt><trkpt lat="44.78777" lon="8.7780587"><ele>169.0</ele><time>2026-04-08T08:13:29.57Z</time></trkpt><trkpt lat="44.787705" lon="8.7780265"><ele>169.0</ele><time>2026-04-08T08:13:34.574Z</time></trkpt><trkpt lat="44.7876399" lon="8.7779956"><ele>169.0</ele><time>2026-04-08T08:13:39.257Z</time></trkpt><trkpt lat="44.7875807" lon="8.7779612"><ele>169.0</ele><time>2026-04-08T08:13:43.378Z</time></trkpt><trkpt lat="44.7875215" lon="8.7779232"><ele>169.0</ele><time>2026-04-08T08:13:47.559Z</time></trkpt><trkpt lat="44.7874575" lon="8.7779002"><ele>169.14285714285714</ele><time>2026-04-08T08:13:52.595Z</time></trkpt><trkpt lat="44.787386" lon="8.7778676"><ele>169.28571428571428</ele><time>2026-04-08T08:13:57.57Z</time></trkpt><trkpt lat="44.7873204" lon="8.7778401"><ele>169.42857142857144</ele><time>2026-04-08T08:14:02.317Z</time></trkpt><trkpt lat="44.7872549" lon="8.7778176"><ele>169.57142857142856</ele><time>2026-04-08T08:14:06.417Z</time></trkpt><trkpt lat="44.7871681" lon="8.7777733"><ele>169.7142857142857</ele><time>2026-04-08T08:14:11.95Z</time></trkpt><trkpt lat="44.7871031" lon="8.7777458"><ele>169.85714285714286</ele><time>2026-04-08T08:14:16.092Z</time></trkpt><trkpt lat="44.78704" lon="8.7777169"><ele>170.0</ele><time>2026-04-08T08:14:20.758Z</time></trkpt><trkpt lat="44.7869758" lon="8.7776819"><ele>170.16666666666666</ele><time>2026-04-08T08:14:24.832Z</time></trkpt><trkpt lat="44.7869084" lon="8.7776552"><ele>170.33333333333331</ele><time>2026-04-08T08:14:33.628Z</time></trkpt><trkpt lat="44.7868401" lon="8.777625"><ele>170.5</ele><time>2026-04-08T08:14:38.57Z</time></trkpt><trkpt lat="44.7867739" lon="8.7775909"><ele>170.66666666666666</ele><time>2026-04-08T08:14:44.316Z</time></trkpt><trkpt lat="44.7866859" lon="8.7775365"><ele>170.83333333333334</ele><time>2026-04-08T08:14:49.39Z</time></trkpt><trkpt lat="44.7866181" lon="8.7775086"><ele>171.0</ele><time>2026-04-08T08:14:53.512Z</time></trkpt><trkpt lat="44.7865421" lon="8.7774687"><ele>170.7142857142857</ele><time>2026-04-08T08:14:58.129Z</time></trkpt><trkpt lat="44.7864694" lon="8.7774284"><ele>170.42857142857142</ele><time>2026-04-08T08:15:01.863Z</time></trkpt><trkpt lat="44.7863862" lon="8.7774066"><ele>170.14285714285714</ele><time>2026-04-08T08:15:08.57Z</time></trkpt><trkpt lat="44.786322" lon="8.7773624"><ele>169.85714285714283</ele><time>2026-04-08T08:15:13.333Z</time></trkpt><trkpt lat="44.7862502" lon="8.7773312"><ele>169.57142857142856</ele><time>2026-04-08T08:15:17.57Z</time></trkpt><trkpt lat="44.7861894" lon="8.7773052"><ele>169.28571428571428</ele><time>2026-04-08T08:15:22.45Z</time></trkpt><trkpt lat="44.78613" lon="8.7772701"><ele>169.0</ele><time>2026-04-08T08:15:26.57Z</time></trkpt><trkpt lat="44.7860611" lon="8.7772364"><ele>169.33333333333334</ele><time>2026-04-08T08:15:31.57Z</time></trkpt><trkpt lat="44.7859923" lon="8.7772027"><ele>169.66666666666669</ele><time>2026-04-08T08:15:35.57Z</time></trkpt><trkpt lat="44.7859244" lon="8.7771818"><ele>170.0</ele><time>2026-04-08T08:15:40.57Z</time></trkpt><trkpt lat="44.7858488" lon="8.7771529"><ele>170.33333333333334</ele><time>2026-04-08T08:15:45.57Z</time></trkpt><trkpt lat="44.7857651" lon="8.7771132"><ele>170.66666666666666</ele><time>2026-04-08T08:15:50.57Z</time></trkpt><trkpt lat="44.7857003" lon="8.7770734"><ele>171.0</ele><time>2026-04-08T08:15:55.57Z</time></trkpt><trkpt lat="44.7856278" lon="8.7770264"><ele>171.0</ele><time>2026-04-08T08:16:01.372Z</time></trkpt><trkpt lat="44.785545" lon="8.7769927"><ele>171.0</ele><time>2026-04-08T08:16:05.57Z</time></trkpt><trkpt lat="44.7854744" lon="8.7769658"><ele>171.0</ele><time>2026-04-08T08:16:12.475Z</time></trkpt><trkpt lat="44.7854048" lon="8.7769294"><ele>171.0</ele><time>2026-04-08T08:16:16.158Z</time></trkpt><trkpt lat="44.7853249" lon="8.776903"><ele>171.0</ele><time>2026-04-08T08:16:21.313Z</time></trkpt><trkpt lat="44.7852454" lon="8.776863"><ele>171.0</ele><time>2026-04-08T08:16:25.57Z</time></trkpt><trkpt lat="44.785179" lon="8.7768264"><ele>171.14285714285714</ele><time>2026-04-08T08:16:30.571Z</time></trkpt><trkpt lat="44.7851118" lon="8.7768113"><ele>171.28571428571428</ele><time>2026-04-08T08:16:36.598Z</time></trkpt><trkpt lat="44.7850413" lon="8.7767678"><ele>171.42857142857144</ele><time>2026-04-08T08:16:41.57Z</time></trkpt><trkpt lat="44.784979" lon="8.7767323"><ele>171.57142857142856</ele><time>2026-04-08T08:16:45.57Z</time></trkpt><trkpt lat="44.7848917" lon="8.776687"><ele>171.71428571428572</ele><time>2026-04-08T08:16:50.57Z</time></trkpt><trkpt lat="44.7848294" lon="8.7766687"><ele>171.85714285714286</ele><time>2026-04-08T08:16:54.57Z</time></trkpt><trkpt lat="44.7847596" lon="8.7766338"><ele>172.0</ele><time>2026-04-08T08:17:00.57Z</time></trkpt><trkpt lat="44.7846857" lon="8.7766001"><ele>172.00000000000003</ele><time>2026-04-08T08:17:04.57Z</time></trkpt><trkpt lat="44.7846111" lon="8.7765638"><ele>172.0</ele><time>2026-04-08T08:18:58.57Z</time></trkpt><trkpt lat="44.7845391" lon="8.7765351"><ele>172.0</ele><time>2026-04-08T08:19:04.372Z</time></trkpt><trkpt lat="44.7844743" lon="8.7764941"><ele>172.0</ele><time>2026-04-08T08:19:14.433Z</time></trkpt><trkpt lat="44.7843969" lon="8.7764623"><ele>172.0</ele><time>2026-04-08T08:19:20.57Z</time></trkpt><trkpt lat="44.7843364" lon="8.7764342"><ele>172.00000000000003</ele><time>2026-04-08T08:19:25.57Z</time></trkpt><trkpt lat="44.7842676" lon="8.7764032"><ele>172.0</ele><time>2026-04-08T08:19:29.57Z</time></trkpt><trkpt lat="44.7842006" lon="8.7763719"><ele>171.83333333333334</ele><time>2026-04-08T08:19:36.413Z</time></trkpt><trkpt lat="44.7841308" lon="8.7763503"><ele>171.66666666666669</ele><time>2026-04-08T08:19:41.577Z</time></trkpt><trkpt lat="44.7840493" lon="8.7763131"><ele>171.5</ele><time>2026-04-08T08:19:46.57Z</time></trkpt><trkpt lat="44.7839723" lon="8.7762767"><ele>171.33333333333334</ele><time>2026-04-08T08:19:53.57Z</time></trkpt><trkpt lat="44.7839011" lon="8.7762465"><ele>171.16666666666666</ele><time>2026-04-08T08:20:00.57Z</time></trkpt><trkpt lat="44.7838182" lon="8.7762126"><ele>171.0</ele><time>2026-04-08T08:20:05.57Z</time></trkpt><trkpt lat="44.7837548" lon="8.7761822"><ele>170.99999999999997</ele><time>2026-04-08T08:20:12.57Z</time></trkpt><trkpt lat="44.7836891" lon="8.7761474"><ele>171.0</ele><time>2026-04-08T08:20:20.296Z</time></trkpt><trkpt lat="44.783616" lon="8.7761349"><ele>171.0</ele><time>2026-04-08T08:20:25.57Z</time></trkpt><trkpt lat="44.7835525" lon="8.7761121"><ele>171.0</ele><time>2026-04-08T08:20:30.557Z</time></trkpt><trkpt lat="44.7834754" lon="8.7760859"><ele>171.0</ele><time>2026-04-08T08:20:35.571Z</time></trkpt><trkpt lat="44.7834108" lon="8.7760599"><ele>170.99999999999997</ele><time>2026-04-08T08:20:40.572Z</time></trkpt><trkpt lat="44.7833412" lon="8.7760393"><ele>171.0</ele><time>2026-04-08T08:20:45.493Z</time></trkpt><trkpt lat="44.7832755" lon="8.7760207"><ele>171.28571428571428</ele><time>2026-04-08T08:20:49.61Z</time></trkpt><trkpt lat="44.7832146" lon="8.7759978"><ele>171.57142857142856</ele><time>2026-04-08T08:20:53.571Z</time></trkpt><trkpt lat="44.7831439" lon="8.7759749"><ele>171.85714285714283</ele><time>2026-04-08T08:20:58.57Z</time></trkpt><trkpt lat="44.7830822" lon="8.7759565"><ele>172.14285714285714</ele><time>2026-04-08T08:21:02.57Z</time></trkpt><trkpt lat="44.7830046" lon="8.7759373"><ele>172.42857142857144</ele><time>2026-04-08T08:21:07.57Z</time></trkpt><trkpt lat="44.7829193" lon="8.7759092"><ele>172.7142857142857</ele><time>2026-04-08T08:21:12.57Z</time></trkpt><trkpt lat="44.7828439" lon="8.7758783"><ele>173.0</ele><time>2026-04-08T08:21:18.57Z</time></trkpt><trkpt lat="44.7827673" lon="8.7758611"><ele>173.0</ele><time>2026-04-08T08:21:23.57Z</time></trkpt><trkpt lat="44.7827015" lon="8.775843"><ele>173.0</ele><time>2026-04-08T08:21:28.599Z</time></trkpt><trkpt lat="44.7826351" lon="8.7758192"><ele>173.0</ele><time>2026-04-08T08:21:32.57Z</time></trkpt><trkpt lat="44.7825553" lon="8.7757967"><ele>173.0</ele><time>2026-04-08T08:21:38.278Z</time></trkpt><trkpt lat="44.7824845" lon="8.7757677"><ele>173.0</ele><time>2026-04-08T08:21:43.57Z</time></trkpt><trkpt lat="44.7824194" lon="8.7757455"><ele>173.0</ele><time>2026-04-08T08:21:47.57Z</time></trkpt><trkpt lat="44.7823261" lon="8.7757217"><ele>173.5</ele><time>2026-04-08T08:21:52.57Z</time></trkpt><trkpt lat="44.7822441" lon="8.7756975"><ele>174.0</ele><time>2026-04-08T08:21:59.57Z</time></trkpt><trkpt lat="44.7821587" lon="8.7756722"><ele>174.5</ele><time>2026-04-08T08:22:04.57Z</time></trkpt><trkpt lat="44.7820686" lon="8.7756713"><ele>175.0</ele><time>2026-04-08T08:22:11.57Z</time></trkpt><trkpt lat="44.7819985" lon="8.7756481"><ele>175.5</ele><time>2026-04-08T08:22:15.585Z</time></trkpt><trkpt lat="44.7819369" lon="8.7756272"><ele>176.0</ele><time>2026-04-08T08:22:19.57Z</time></trkpt><trkpt lat="44.7818685" lon="8.7756069"><ele>175.66666666666666</ele><time>2026-04-08T08:22:24.401Z</time></trkpt><trkpt lat="44.7818062" lon="8.7755859"><ele>175.33333333333331</ele><time>2026-04-08T08:22:28.575Z</time></trkpt><trkpt lat="44.781729" lon="8.7755698"><ele>175.0</ele><time>2026-04-08T08:22:33.436Z</time></trkpt><trkpt lat="44.781656" lon="8.775564"><ele>174.66666666666666</ele><time>2026-04-08T08:22:37.593Z</time></trkpt><trkpt lat="44.7815779" lon="8.7755443"><ele>174.33333333333334</ele><time>2026-04-08T08:22:41.57Z</time></trkpt><trkpt lat="44.7814945" lon="8.7755259"><ele>174.0</ele><time>2026-04-08T08:22:47.57Z</time></trkpt><trkpt lat="44.7814229" lon="8.775512"><ele>174.0</ele><time>2026-04-08T08:22:52.57Z</time></trkpt><trkpt lat="44.7813427" lon="8.7754978"><ele>174.0</ele><time>2026-04-08T08:22:57.57Z</time></trkpt><trkpt lat="44.7812748" lon="8.7754922"><ele>174.0</ele><time>2026-04-08T08:23:03.369Z</time></trkpt><trkpt lat="44.7812097" lon="8.7754795"><ele>174.0</ele><time>2026-04-08T08:23:07.585Z</time></trkpt><trkpt lat="44.7811369" lon="8.7754721"><ele>174.0</ele><time>2026-04-08T08:23:11.57Z</time></trkpt><trkpt lat="44.7810683" lon="8.775456"><ele>174.0</ele><time>2026-04-08T08:23:15.57Z</time></trkpt><trkpt lat="44.7810053" lon="8.775456"><ele>174.0</ele><time>2026-04-08T08:23:19.57Z</time></trkpt><trkpt lat="44.7809368" lon="8.7754303"><ele>174.14285714285714</ele><time>2026-04-08T08:23:24.612Z</time></trkpt><trkpt lat="44.7808688" lon="8.7754335"><ele>174.28571428571428</ele><time>2026-04-08T08:23:28.57Z</time></trkpt><trkpt lat="44.7807986" lon="8.7754277"><ele>174.42857142857144</ele><time>2026-04-08T08:23:33.585Z</time></trkpt><trkpt lat="44.780706" lon="8.7754151"><ele>174.57142857142856</ele><time>2026-04-08T08:23:39.57Z</time></trkpt><trkpt lat="44.7806342" lon="8.7754064"><ele>174.71428571428572</ele><time>2026-04-08T08:23:47.588Z</time></trkpt><trkpt lat="44.7805705" lon="8.7753794"><ele>174.85714285714286</ele><time>2026-04-08T08:23:50.493Z</time></trkpt><trkpt lat="44.7804915" lon="8.7753798"><ele>175.0</ele><time>2026-04-08T08:23:53.57Z</time></trkpt><trkpt lat="44.7804155" lon="8.7753719"><ele>175.0</ele><time>2026-04-08T08:23:58.57Z</time></trkpt><trkpt lat="44.7803298" lon="8.7753616"><ele>175.0</ele><time>2026-04-08T08:24:04.57Z</time></trkpt><trkpt lat="44.7802651" lon="8.7753615"><ele>175.0</ele><time>2026-04-08T08:24:09.57Z</time></trkpt><trkpt lat="44.7802009" lon="8.7753492"><ele>175.0</ele><time>2026-04-08T08:24:17.591Z</time></trkpt><trkpt lat="44.7801211" lon="8.7753384"><ele>175.0</ele><time>2026-04-08T08:24:19.57Z</time></trkpt><trkpt lat="44.7800521" lon="8.7753258"><ele>175.0</ele><time>2026-04-08T08:24:25.571Z</time></trkpt><trkpt lat="44.7799874" lon="8.7753288"><ele>175.0</ele><time>2026-04-08T08:24:27.57Z</time></trkpt><trkpt lat="44.7799151" lon="8.7753258"><ele>175.14285714285714</ele><time>2026-04-08T08:24:33.535Z</time></trkpt><trkpt lat="44.7798452" lon="8.7753225"><ele>175.28571428571428</ele><time>2026-04-08T08:24:37.596Z</time></trkpt><trkpt lat="44.779767" lon="8.7753165"><ele>175.42857142857144</ele><time>2026-04-08T08:24:41.57Z</time></trkpt><trkpt lat="44.7796896" lon="8.7753157"><ele>175.57142857142856</ele><time>2026-04-08T08:24:46.57Z</time></trkpt><trkpt lat="44.7796215" lon="8.7753216"><ele>175.71428571428572</ele><time>2026-04-08T08:24:51.609Z</time></trkpt><trkpt lat="44.7795505" lon="8.7753142"><ele>175.85714285714286</ele><time>2026-04-08T08:24:55.588Z</time></trkpt><trkpt lat="44.7794692" lon="8.775317"><ele>176.0</ele><time>2026-04-08T08:24:59.57Z</time></trkpt><trkpt lat="44.7793967" lon="8.7753171"><ele>176.28571428571428</ele><time>2026-04-08T08:25:03.57Z</time></trkpt><trkpt lat="44.7793152" lon="8.7753157"><ele>176.57142857142856</ele><time>2026-04-08T08:25:10.832Z</time></trkpt><trkpt lat="44.7792455" lon="8.775297"><ele>176.85714285714283</ele><time>2026-04-08T08:25:14.035Z</time></trkpt><trkpt lat="44.7791714" lon="8.7753167"><ele>177.14285714285714</ele><time>2026-04-08T08:25:19.518Z</time></trkpt><trkpt lat="44.7791064" lon="8.7753013"><ele>177.42857142857142</ele><time>2026-04-08T08:25:23.81Z</time></trkpt><trkpt lat="44.7790408" lon="8.7752925"><ele>177.7142857142857</ele><time>2026-04-08T08:25:28.186Z</time></trkpt><trkpt lat="44.7789715" lon="8.7752923"><ele>178.0</ele><time>2026-04-08T08:25:32.57Z</time></trkpt><trkpt lat="44.7788949" lon="8.7752986"><ele>177.99999999999997</ele><time>2026-04-08T08:25:37.571Z</time></trkpt><trkpt lat="44.7788301" lon="8.7752946"><ele>178.0</ele><time>2026-04-08T08:25:41.57Z</time></trkpt><trkpt lat="44.778754" lon="8.7752924"><ele>178.0</ele><time>2026-04-08T08:25:46.571Z</time></trkpt><trkpt lat="44.7786889" lon="8.7753029"><ele>178.0</ele><time>2026-04-08T08:25:50.919Z</time></trkpt><trkpt lat="44.77863" lon="8.775339"><ele>178.0</ele><time>2026-04-08T08:25:55.448Z</time></trkpt><trkpt lat="44.7785592" lon="8.7753982"><ele>177.99999999999997</ele><time>2026-04-08T08:26:03.57Z</time></trkpt><trkpt lat="44.7785044" lon="8.7754469"><ele>178.0</ele><time>2026-04-08T08:26:06.518Z</time></trkpt><trkpt lat="44.7784398" lon="8.7754798"><ele>178.14285714285714</ele><time>2026-04-08T08:26:10.57Z</time></trkpt><trkpt lat="44.7783671" lon="8.7755042"><ele>178.28571428571428</ele><time>2026-04-08T08:26:14.393Z</time></trkpt><trkpt lat="44.7782998" lon="8.7755056"><ele>178.42857142857144</ele><time>2026-04-08T08:26:18.595Z</time></trkpt><trkpt lat="44.7782363" lon="8.7755223"><ele>178.57142857142856</ele><time>2026-04-08T08:26:22.57Z</time></trkpt><trkpt lat="44.7781769" lon="8.7755938"><ele>178.71428571428572</ele><time>2026-04-08T08:26:27.256Z</time></trkpt><trkpt lat="44.7781406" lon="8.775674"><ele>178.85714285714286</ele><time>2026-04-08T08:26:32.57Z</time></trkpt><trkpt lat="44.7781038" lon="8.7757628"><ele>179.0</ele><time>2026-04-08T08:26:39.57Z</time></trkpt><trkpt lat="44.7780657" lon="8.7758359"><ele>179.0</ele><time>2026-04-08T08:26:41.557Z</time></trkpt><trkpt lat="44.7780146" lon="8.7759063"><ele>179.0</ele><time>2026-04-08T08:26:45.57Z</time></trkpt><trkpt lat="44.7779811" lon="8.7759816"><ele>179.0</ele><time>2026-04-08T08:26:51.574Z</time></trkpt><trkpt lat="44.7779272" lon="8.776071"><ele>179.0</ele><time>2026-04-08T08:26:57.57Z</time></trkpt><trkpt lat="44.7778913" lon="8.7761791"><ele>179.0</ele><time>2026-04-08T08:27:01.451Z</time></trkpt><trkpt lat="44.7778394" lon="8.7762791"><ele>179.0</ele><time>2026-04-08T08:27:05.57Z</time></trkpt><trkpt lat="44.7777989" lon="8.776354"><ele>178.83333333333331</ele><time>2026-04-08T08:27:13.439Z</time></trkpt><trkpt lat="44.7777534" lon="8.7764158"><ele>178.66666666666666</ele><time>2026-04-08T08:27:17.551Z</time></trkpt><trkpt lat="44.7777095" lon="8.7765166"><ele>178.5</ele><time>2026-04-08T08:27:21.57Z</time></trkpt><trkpt lat="44.7776631" lon="8.7766042"><ele>178.33333333333334</ele><time>2026-04-08T08:27:27.193Z</time></trkpt><trkpt lat="44.7776059" lon="8.7766967"><ele>178.16666666666669</ele><time>2026-04-08T08:27:31.772Z</time></trkpt><trkpt lat="44.7775602" lon="8.7768139"><ele>178.0</ele><time>2026-04-08T08:27:36.57Z</time></trkpt><trkpt lat="44.7775223" lon="8.7768997"><ele>177.99999999999997</ele><time>2026-04-08T08:27:41.456Z</time></trkpt><trkpt lat="44.7774767" lon="8.7769829"><ele>178.0</ele><time>2026-04-08T08:27:45.57Z</time></trkpt><trkpt lat="44.7774382" lon="8.7770546"><ele>178.0</ele><time>2026-04-08T08:27:50.216Z</time></trkpt><trkpt lat="44.7773897" lon="8.7771517"><ele>178.0</ele><time>2026-04-08T08:27:55.57Z</time></trkpt><trkpt lat="44.7773472" lon="8.7772301"><ele>178.0</ele><time>2026-04-08T08:28:00.316Z</time></trkpt><trkpt lat="44.7773058" lon="8.7773156"><ele>177.99999999999997</ele><time>2026-04-08T08:28:04.954Z</time></trkpt><trkpt lat="44.7772649" lon="8.777399"><ele>178.0</ele><time>2026-04-08T08:28:10.061Z</time></trkpt><trkpt lat="44.7772254" lon="8.7774799"><ele>177.99999999999997</ele><time>2026-04-08T08:28:14.211Z</time></trkpt><trkpt lat="44.7771849" lon="8.7775688"><ele>178.0</ele><time>2026-04-08T08:28:18.888Z</time></trkpt><trkpt lat="44.7771386" lon="8.7776392"><ele>178.0</ele><time>2026-04-08T08:28:22.572Z</time></trkpt><trkpt lat="44.7770958" lon="8.7777301"><ele>178.0</ele><time>2026-04-08T08:28:29.098Z</time></trkpt><trkpt lat="44.7770566" lon="8.7778028"><ele>178.0</ele><time>2026-04-08T08:28:31.857Z</time></trkpt><trkpt lat="44.7770184" lon="8.7778752"><ele>177.99999999999997</ele><time>2026-04-08T08:28:36.516Z</time></trkpt><trkpt lat="44.7769765" lon="8.7779498"><ele>178.0</ele><time>2026-04-08T08:28:40.57Z</time></trkpt><trkpt lat="44.7769284" lon="8.7780101"><ele>178.0</ele><time>2026-04-08T08:28:46.28Z</time></trkpt><trkpt lat="44.7768736" lon="8.7780633"><ele>178.0</ele><time>2026-04-08T08:28:51.374Z</time></trkpt><trkpt lat="44.7768021" lon="8.7781084"><ele>178.0</ele><time>2026-04-08T08:28:55.138Z</time></trkpt><trkpt lat="44.7767311" lon="8.7781423"><ele>178.0</ele><time>2026-04-08T08:28:59.379Z</time></trkpt><trkpt lat="44.7766535" lon="8.7781406"><ele>178.0</ele><time>2026-04-08T08:29:04.57Z</time></trkpt><trkpt lat="44.7765791" lon="8.7781205"><ele>178.0</ele><time>2026-04-08T08:29:09.559Z</time></trkpt><trkpt lat="44.7765005" lon="8.7781053"><ele>178.28571428571428</ele><time>2026-04-08T08:29:13.57Z</time></trkpt><trkpt lat="44.7764314" lon="8.7780997"><ele>178.57142857142856</ele><time>2026-04-08T08:29:19.57Z</time></trkpt><trkpt lat="44.77635" lon="8.7780843"><ele>178.85714285714283</ele><time>2026-04-08T08:29:25.57Z</time></trkpt><trkpt lat="44.7762821" lon="8.7780638"><ele>179.14285714285714</ele><time>2026-04-08T08:29:29.411Z</time></trkpt><trkpt lat="44.7762228" lon="8.7780244"><ele>179.42857142857144</ele><time>2026-04-08T08:29:34.992Z</time></trkpt><trkpt lat="44.7761666" lon="8.7779738"><ele>179.7142857142857</ele><time>2026-04-08T08:29:38.717Z</time></trkpt><trkpt lat="44.7760984" lon="8.7779662"><ele>180.0</ele><time>2026-04-08T08:29:43.375Z</time></trkpt><trkpt lat="44.7760065" lon="8.7779486"><ele>180.0</ele><time>2026-04-08T08:29:48.996Z</time></trkpt><trkpt lat="44.7759429" lon="8.7779498"><ele>180.0</ele><time>2026-04-08T08:29:52.751Z</time></trkpt><trkpt lat="44.7758757" lon="8.7779436"><ele>180.0</ele><time>2026-04-08T08:29:57.538Z</time></trkpt><trkpt lat="44.7758194" lon="8.7778952"><ele>180.0</ele><time>2026-04-08T08:30:02.572Z</time></trkpt><trkpt lat="44.7758465" lon="8.7778031"><ele>180.0</ele><time>2026-04-08T08:30:20.57Z</time></trkpt><trkpt lat="44.7758533" lon="8.7778959"><ele>180.0</ele><time>2026-04-08T08:31:03.57Z</time></trkpt><trkpt lat="44.7757948" lon="8.7779808"><ele>180.0</ele><time>2026-04-08T08:31:10.456Z</time></trkpt><trkpt lat="44.7757516" lon="8.7780478"><ele>180.0</ele><time>2026-04-08T08:31:15.605Z</time></trkpt><trkpt lat="44.7757332" lon="8.7781332"><ele>180.0</ele><time>2026-04-08T08:31:20.476Z</time></trkpt><trkpt lat="44.7757073" lon="8.7782267"><ele>180.0</ele><time>2026-04-08T08:31:24.57Z</time></trkpt><trkpt lat="44.7756875" lon="8.7783235"><ele>180.0</ele><time>2026-04-08T08:31:29.57Z</time></trkpt><trkpt lat="44.7756639" lon="8.7784235"><ele>180.0</ele><time>2026-04-08T08:31:35.454Z</time></trkpt><trkpt lat="44.7756339" lon="8.7785225"><ele>180.0</ele><time>2026-04-08T08:31:40.57Z</time></trkpt><trkpt lat="44.7756079" lon="8.7786077"><ele>180.0</ele><time>2026-04-08T08:31:45.57Z</time></trkpt><trkpt lat="44.775586" lon="8.7786967"><ele>180.0</ele><time>2026-04-08T08:31:50.611Z</time></trkpt><trkpt lat="44.7755568" lon="8.7787804"><ele>180.0</ele><time>2026-04-08T08:31:54.57Z</time></trkpt><trkpt lat="44.7755371" lon="8.7788657"><ele>180.0</ele><time>2026-04-08T08:31:59.57Z</time></trkpt><trkpt lat="44.7755083" lon="8.7789475"><ele>180.0</ele><time>2026-04-08T08:32:05.279Z</time></trkpt><trkpt lat="44.7754761" lon="8.7790329"><ele>180.0</ele><time>2026-04-08T08:32:09.57Z</time></trkpt><trkpt lat="44.7754564" lon="8.7791194"><ele>180.0</ele><time>2026-04-08T08:32:15.438Z</time></trkpt><trkpt lat="44.7754276" lon="8.7792077"><ele>180.0</ele><time>2026-04-08T08:32:18.57Z</time></trkpt><trkpt lat="44.7754014" lon="8.7793"><ele>180.14285714285714</ele><time>2026-04-08T08:32:22.57Z</time></trkpt><trkpt lat="44.7753742" lon="8.7793958"><ele>180.2857142857143</ele><time>2026-04-08T08:32:28.4Z</time></trkpt><trkpt lat="44.7753437" lon="8.7795007"><ele>180.42857142857144</ele><time>2026-04-08T08:32:32.57Z</time></trkpt><trkpt lat="44.7753201" lon="8.7795928"><ele>180.57142857142856</ele><time>2026-04-08T08:32:38.53Z</time></trkpt><trkpt lat="44.7752986" lon="8.7796836"><ele>180.71428571428572</ele><time>2026-04-08T08:32:42.57Z</time></trkpt><trkpt lat="44.7752731" lon="8.7797706"><ele>180.85714285714286</ele><time>2026-04-08T08:32:46.57Z</time></trkpt><trkpt lat="44.7752525" lon="8.7798654"><ele>181.0</ele><time>2026-04-08T08:32:49.554Z</time></trkpt><trkpt lat="44.7752258" lon="8.779949"><ele>181.0</ele><time>2026-04-08T08:32:52.57Z</time></trkpt><trkpt lat="44.7751941" lon="8.7800274"><ele>181.0</ele><time>2026-04-08T08:32:58.586Z</time></trkpt><trkpt lat="44.7751679" lon="8.7801265"><ele>181.0</ele><time>2026-04-08T08:33:04.291Z</time></trkpt><trkpt lat="44.7751395" lon="8.7802287"><ele>181.0</ele><time>2026-04-08T08:33:08.473Z</time></trkpt><trkpt lat="44.7751169" lon="8.7803266"><ele>181.0</ele><time>2026-04-08T08:33:12.57Z</time></trkpt><trkpt lat="44.7750989" lon="8.7804142"><ele>181.0</ele><time>2026-04-08T08:33:16.571Z</time></trkpt><trkpt lat="44.7750623" lon="8.7805062"><ele>181.0</ele><time>2026-04-08T08:33:20.61Z</time></trkpt><trkpt lat="44.7750426" lon="8.7805945"><ele>181.42857142857142</ele><time>2026-04-08T08:33:26.449Z</time></trkpt><trkpt lat="44.7750148" lon="8.7806817"><ele>181.85714285714283</ele><time>2026-04-08T08:33:30.57Z</time></trkpt><trkpt lat="44.7749772" lon="8.7808215"><ele>182.28571428571428</ele><time>2026-04-08T08:33:40.214Z</time></trkpt><trkpt lat="44.7749419" lon="8.7809075"><ele>182.71428571428572</ele><time>2026-04-08T08:33:45.57Z</time></trkpt><trkpt lat="44.7749181" lon="8.7809997"><ele>183.14285714285714</ele><time>2026-04-08T08:33:50.588Z</time></trkpt><trkpt lat="44.7748854" lon="8.7810792"><ele>183.57142857142858</ele><time>2026-04-08T08:33:52.549Z</time></trkpt><trkpt lat="44.7748578" lon="8.7811631"><ele>184.0</ele><time>2026-04-08T08:33:56.255Z</time></trkpt><trkpt lat="44.7748355" lon="8.7812557"><ele>184.0</ele><time>2026-04-08T08:34:00.57Z</time></trkpt><trkpt lat="44.7748034" lon="8.7813337"><ele>184.0</ele><time>2026-04-08T08:34:04.517Z</time></trkpt><trkpt lat="44.7747792" lon="8.781429"><ele>184.0</ele><time>2026-04-08T08:34:08.57Z</time></trkpt><trkpt lat="44.7747467" lon="8.7815183"><ele>184.0</ele><time>2026-04-08T08:34:14.369Z</time></trkpt><trkpt lat="44.774715" lon="8.7816385"><ele>184.0</ele><time>2026-04-08T08:34:20.57Z</time></trkpt><trkpt lat="44.7746871" lon="8.7817322"><ele>184.0</ele><time>2026-04-08T08:34:25.394Z</time></trkpt><trkpt lat="44.7746617" lon="8.7818253"><ele>184.0</ele><time>2026-04-08T08:34:29.57Z</time></trkpt><trkpt lat="44.7746323" lon="8.7819244"><ele>182.0</ele><time>2026-04-08T08:34:56.449Z</time></trkpt></trkseg><trkseg><trkpt lat="44.7691695" lon="8.7877414"><ele>191.0</ele><time>2026-04-08T08:44:35.572Z</time></trkpt><trkpt lat="44.7691126" lon="8.7877868"><ele>191.0</ele><time>2026-04-08T08:44:40.437Z</time></trkpt><trkpt lat="44.7690655" lon="8.787854"><ele>191.0</ele><time>2026-04-08T08:44:44.282Z</time></trkpt></trkseg></trk></gpx>